Terminal Aerodrome Forecast
Issued by NWS Memphis, TN

Current Version | Previous Version | Text Only | Print | Product List | Glossary On
Versions: 1 2 3 4 5 6 7 8 9 10 11 12 13 14
000
FTUS44 KMEG 230528
TAFJBR
TAF
KJBR 230528Z 2306/2406 21006KT P6SM SKC
     FM231300 22006KT P6SM VCSH FEW035
     FM231600 24008KT P6SM SCT045
     FM232300 21004KT P6SM VCTS SCT050CB=

USA.gov is the U.S. government's official web portal to all federal, state and local government web resources and services.